Shreveport Regional Airport Shreveport US
ICAO: KSHV
IATA: SHV
Category: Large
Scheduled Services: Yes

Elevation: 258 ft
TransAlt. 18000 ft.

Airport Communications:
APP/DEP:119.9
ATIS:128.45
CLNC DEL:124.65
GND:121.9
TWR:121.4
UNICOM:122.95

KSHV Zoom In..

If you have problems with the map follow the link
https://www.worldairports.se/pages/airport.php?
ICAO=KSHV

Runways:

(A) RW 06 length 6202 ft width 150 ft
LOC 109.10 / hdg 57

(B) RW 14 length 8351 ft width 200 ft
ILS 110.70 / hdg 139

(C) RW 24 length 6202 ft width 150 ft
LOC 109.10 / hdg 237

(D) RW 32 length 8351 ft width 200 ft
ILS 110.30 / hdg 319

Location; KSHV
Day. 14 / Time. 16.56 Zulu
* Altimeter: 29.91
* Temperature: 13° c. 55.4°f.
* Wind from: 360° Speed 03 kn.
Dewpoint: 08° c.
Visibility: 10 Statute Miles.
Clouds: Scattered 14000 ft.
Clouds: Scattered 27000 ft.

KSHV 141656Z 36003KT 10SM SCT140 SCT270 13/08 A2991 RMK AO2 SLP128 T01280083


Wind From 360°
Speed 03 kn.

 
 
jpsmedia worldairports.se 2019   terms of use